Flight Track Log - Related Links

Times and Time Zones

All times are in EDT time to prevent confusion due to time zone crossing. See the N4507T flight status page for this flight to view local times or setup timezone preferences in your user account.

Time Position Orientation Groundspeed Altitude Reporting Facility
EDT Latitude Longitude Course Direction KTS MPH feet Rate Location/Type
Sun 12:49:12 PM 42.6250 -92.3411 23° Northeast 104 120 3,100  Level Chicago Center
Sun 12:50:14 PM 42.6547 -92.3275 19° North 108 124 3,500 387 Climbing Chicago Center
Sun 12:51:00 PM 42.8293 -92.2438 20° North  Level FlightAware Approximate
Sun 12:51:16 PM 42.6847 -92.3119 21° North 112 129 3,900  Level Chicago Center
Sun 12:52:00 PM 42.8608 -92.2281 20° North  Level FlightAware Approximate
Sun 12:52:18 PM 42.7206 -92.2925 22° Northeast 114 131 4,500  Level Chicago Center
Sun 12:53:00 PM 42.8923 -92.2123 20° North  Level FlightAware Approximate
Sun 12:53:20 PM 42.7517 -92.2761 21° North 117 135 4,700  Level Chicago Center
Sun 12:54:22 PM 42.7825 -92.2597 21° North 119 137 5,000 387 Climbing Chicago Center
Sun 12:55:24 PM 42.8133 -92.2433 21° North 119 137 5,500 387 Climbing Chicago Center
Sun 12:56:26 PM 42.8431 -92.2294 19° North 117 135 5,800 339 Climbing Chicago Center
Sun 12:57:28 PM 42.8778 -92.2108 21° North 115 132 6,200 339 Climbing Chicago Center
Sun 12:58:30 PM 42.9075 -92.1947 22° Northeast 114 131 6,500 290 Climbing Chicago Center
Sun 12:59:32 PM 42.9372 -92.1789 21° North 115 132 6,800 242 Climbing Chicago Center
Sun 01:00:34 PM 42.9678 -92.1631 21° North 116 133 7,000 96 Climbing Chicago Center
Sun 01:01:37 PM 43.0022 -92.1453 21° North 122 140 7,000  Level Chicago Center
Sun 01:02:39 PM 43.0467 -92.1231 20° North 134 154 7,000  Level Chicago Center
Sun 01:03:16 PM 43.0697 -92.1114 20° North 136 157 7,000 61 Level Minneapolis Center
Sun 01:04:18 PM 43.1056 -92.0919 22° Northeast 138 159 7,100  Climbing Minneapolis Center
Sun 01:05:20 PM 43.1414 -92.0719 22° Northeast 139 160 7,000 -48 Descending Minneapolis Center
Sun 01:06:22 PM 43.1772 -92.0525 22° Northeast 140 161 7,000  Level Minneapolis Center
Sun 01:07:23 PM 43.2061 -92.0364 22° Northeast 140 161 7,000  Level Minneapolis Center
Sun 01:08:26 PM 43.2581 -92.0103 20° North 143 165 7,000  Level Minneapolis Center
Sun 01:09:28 PM 43.2986 -91.9875 22° Northeast 148 170 7,000  Level Minneapolis Center
Sun 01:10:30 PM 43.3350 -91.9678 22° Northeast 142 163 7,000  Level Minneapolis Center
Sun 01:11:32 PM 43.3750 -91.9458 22° Northeast 145 167 7,000  Level Minneapolis Center
Sun 01:12:34 PM 43.4125 -91.9261 21° North 144 166 7,000  Level Minneapolis Center
Sun 01:13:36 PM 43.4514 -91.9039 23° Northeast 143 165 7,000  Level Minneapolis Center
Sun 01:14:39 PM 43.4883 -91.8844 21° North 144 166 7,000  Level Minneapolis Center
Sun 01:15:41 PM 43.5281 -91.8625 22° Northeast 144 166 7,000  Level Minneapolis Center
Sun 01:16:43 PM 43.5681 -91.8417 21° North 143 165 7,000  Level Minneapolis Center
Sun 01:17:45 PM 43.6047 -91.8217 22° Northeast 145 167 7,000  Level Minneapolis Center
Sun 01:18:48 PM 43.6442 -91.7994 22° Northeast 144 166 7,000  Level Minneapolis Center
Sun 01:19:50 PM 43.6811 -91.7803 21° North 142 163 7,000  Level Minneapolis Center
Sun 01:20:52 PM 43.7167 -91.7611 21° North 143 165 7,000  Level Minneapolis Center
Sun 01:21:54 PM 43.7608 -91.7358 22° Northeast 146 168 7,000  Level Minneapolis Center
Sun 01:22:56 PM 43.7978 -91.7131 24° Northeast 145 167 7,000  Level Minneapolis Center
Sun 01:23:59 PM 43.8378 -91.6936 19° North 145 167 7,000  Level Minneapolis Center
Sun 01:25:01 PM 43.8769 -91.6714 22° Northeast 150 173 7,000  Level Minneapolis Center
Sun 01:26:03 PM 43.9164 -91.6489 22° Northeast 147 169 7,000  Level Minneapolis Center
Sun 01:27:05 PM 43.9550 -91.6272 22° Northeast 146 168 7,000  Level Minneapolis Center
Sun 01:28:07 PM 43.9911 -91.6078 21° North 144 166 7,000  Level Minneapolis Center
Sun 01:29:09 PM 44.0308 -91.5856 22° Northeast 146 168 7,000  Level Minneapolis Center
Sun 01:30:11 PM 44.0703 -91.5639 22° Northeast 147 169 7,000  Level Minneapolis Center
Sun 01:31:13 PM 44.1078 -91.5425 22° Northeast 140 161 7,000  Level Minneapolis Center
Sun 01:32:15 PM 44.1475 -91.5217 21° North 146 168 7,000  Level Minneapolis Center
Sun 01:33:17 PM 44.1858 -91.4986 23° Northeast 145 167 7,000  Level Minneapolis Center
Sun 01:34:19 PM 44.2247 -91.4767 22° Northeast 144 166 7,000  Level Minneapolis Center
Sun 01:35:21 PM 44.2597 -91.4572 22° Northeast 142 163 7,000  Level Minneapolis Center
Sun 01:36:23 PM 44.2967 -91.4356 23° Northeast 139 160 7,000  Level Minneapolis Center
Sun 01:37:25 PM 44.3344 -91.4156 21° North 139 160 7,000  Level Minneapolis Center
Sun 01:38:27 PM 44.3639 -91.3983 23° Northeast 142 163 7,000  Level Minneapolis Center
Sun 01:39:30 PM 44.4111 -91.3719 22° Northeast 142 163 7,000  Level Minneapolis Center
Sun 01:40:31 PM 44.4408 -91.3558 21° North 143 165 7,000 48 Level Minneapolis Center
Sun 01:41:34 PM 44.4861 -91.3300 22° Northeast 138 159 7,100 48 Climbing Minneapolis Center
Sun 01:42:36 PM 44.5208 -91.3103 22° Northeast 139 160 7,100  Level Minneapolis Center
Sun 01:43:38 PM 44.5572 -91.2903 21° North 136 157 7,100  Level Minneapolis Center
Sun 01:44:40 PM 44.5936 -91.2697 22° Northeast 136 157 7,100  Level Minneapolis Center
Sun 01:45:42 PM 44.6317 -91.2486 22° Northeast 140 161 7,100  Level Minneapolis Center
Sun 01:46:44 PM 44.6694 -91.2272 22° Northeast 138 159 7,100  Level Minneapolis Center
Sun 01:47:58 PM 44.7067 -91.2061 22° Northeast 139 160 7,100  Level Minneapolis Center
Sun 01:49:01 PM 44.7492 -91.1817 22° Northeast 138 159 7,100  Level Minneapolis Center
Sun 01:50:15 PM 44.7953 -91.1558 22° Northeast 138 159 7,100  Level Minneapolis Center
Sun 01:51:17 PM 44.8242 -91.1389 23° Northeast 140 161 7,100  Level Minneapolis Center
Sun 01:52:20 PM 44.8667 -91.1150 22° Northeast 137 158 7,100  Level Minneapolis Center
Sun 01:53:22 PM 44.9033 -91.0942 22° Northeast 137 158 7,100  Level Minneapolis Center
Sun 01:54:24 PM 44.9400 -91.0728 22° Northeast 136 157 7,100  Level Minneapolis Center
Sun 01:55:26 PM 44.9767 -91.0517 22° Northeast 135 155 7,100  Level Minneapolis Center
Sun 01:56:28 PM 45.0136 -91.0303 22° Northeast 136 157 7,100  Level Minneapolis Center
Sun 01:57:30 PM 45.0506 -91.0103 21° North 136 157 7,100  Level Minneapolis Center
Sun 01:58:32 PM 45.0833 -90.9900 24° Northeast 133 153 7,100  Level Minneapolis Center
Sun 01:59:34 PM 45.1208 -90.9683 22° Northeast 135 155 7,100  Level Minneapolis Center
Sun 02:00:36 PM 45.1494 -90.9492 25° Northeast 131 151 7,100  Level Minneapolis Center
Sun 02:01:38 PM 45.1842 -90.9306 21° North 132 152 7,100  Level Minneapolis Center
Sun 02:02:41 PM 45.2231 -90.9058 24° Northeast 129 148 7,100  Level Minneapolis Center
Sun 02:03:43 PM 45.2572 -90.8872 21° North 130 150 7,100  Level Minneapolis Center
Sun 02:04:45 PM 45.2911 -90.8683 21° North 130 150 7,100  Level Minneapolis Center
Sun 02:05:47 PM 45.3256 -90.8489 22° Northeast 132 152 7,100  Level Minneapolis Center
Sun 02:06:49 PM 45.3603 -90.8289 22° Northeast 134 154 7,100  Level Minneapolis Center
Sun 02:07:51 PM 45.3994 -90.8061 22° Northeast 129 148 7,100  Level Minneapolis Center
Sun 02:08:53 PM 45.4322 -90.7864 23° Northeast 128 147 7,100  Level Minneapolis Center
Sun 02:09:55 PM 45.4650 -90.7667 23° Northeast 128 147 7,100  Level Minneapolis Center
Sun 02:10:57 PM 45.4978 -90.7478 22° Northeast 127 146 7,100  Level Minneapolis Center
Sun 02:11:59 PM 45.5314 -90.7286 22° Northeast 128 147 7,100  Level Minneapolis Center
Sun 02:13:01 PM 45.5633 -90.7097 22° Northeast 127 146 7,100  Level Minneapolis Center
Sun 02:14:04 PM 45.6017 -90.6878 22° Northeast 125 144 7,100  Level Minneapolis Center
Sun 02:15:06 PM 45.6342 -90.6692 22° Northeast 125 144 7,100  Level Minneapolis Center
Sun 02:16:08 PM 45.6653 -90.6497 24° Northeast 124 143 7,100  Level Minneapolis Center
Sun 02:17:10 PM 45.6969 -90.6311 22° Northeast 123 142 7,100  Level Minneapolis Center
Sun 02:18:12 PM 45.7281 -90.6114 24° Northeast 122 140 7,100  Level Minneapolis Center
Sun 02:19:14 PM 45.7614 -90.5939 20° North 124 143 7,100  Level Minneapolis Center
Sun 02:20:16 PM 45.7989 -90.5725 22° Northeast 124 143 7,100  Level Minneapolis Center
Sun 02:21:30 PM 45.8300 -90.5514 25° Northeast 123 142 7,100  Level Minneapolis Center
Sun 02:22:33 PM 45.8675 -90.5319 20° North 121 139 7,100  Level Minneapolis Center
Sun 02:23:35 PM 45.8981 -90.5125 24° Northeast 121 139 7,100 -48 Level Minneapolis Center
Sun 02:24:37 PM 45.9306 -90.4939 22° Northeast 122 140 7,000 -145 Descending Minneapolis Center
Sun 02:25:39 PM 45.9603 -90.4742 25° Northeast 121 139 6,800 -339 Descending Minneapolis Center
Sun 02:26:41 PM 46.0011 -90.4506 22° Northeast 124 143 6,300 -435 Descending Minneapolis Center
Sun 02:27:43 PM 46.0372 -90.4300 22° Northeast 132 152 5,900 -339 Descending Minneapolis Center
Sun 02:28:45 PM 46.0689 -90.4097 24° Northeast 130 150 5,600 -339 Descending Minneapolis Center
Sun 02:29:47 PM 46.1056 -90.3889 22° Northeast 133 153 5,200 -353 Descending Minneapolis Center
Sun 02:31:01 PM 46.1381 -90.3681 24° Northeast 133 153 4,800 -350 Descending Minneapolis Center
Sun 02:32:04 PM 46.1778 -90.3450 22° Northeast 130 150 4,400 -288 Descending Minneapolis Center
Sun 02:33:06 PM 46.2117 -90.3253 22° Northeast 130 150 4,200 -290 Descending Minneapolis Center
Sun 02:34:08 PM 46.2481 -90.3031 23° Northeast 125 144 3,800 -290 Descending Minneapolis Center
Sun 02:35:10 PM 46.2808 -90.2833 23° Northeast 126 145 3,600 -145 Descending Minneapolis Center
Sun 02:36:12 PM 46.3114 -90.2647 23° Northeast 123 142 3,500 -48 Descending Minneapolis Center
Sun 02:37:14 PM 46.3422 -90.2453 24° Northeast 123 142 3,500  Level Minneapolis Center

Login

Don't have an account? Register now (free) for customized features, flight alerts, and more!